Ana Sayfa
METAR-TAF:

METAR-TAF

Havaalanları :

Dubai, Birleşik Arap Emirlikleri

Dubai Uluslararası Havalimanı

Enlem: 25-15-10N, Boylam: 055-21-52E, yükseklik: 8 m

Güncel hava durumu gözlemi

Rapor saat 01:00 UTC de 1 saat ve 8 dakika önce yapıldı.
Rüzgar doğu/güneydoğudan 7 kt
Sıcaklık 30°C
Nem 38%
Basınç 1007 hPa
Görüş mesafesi 10 km veya daha fazla
1500 m altında bulut yok ve kümülonimbus yok

METAR: OMDB 260100Z 12007KT CAVOK 30/14 Q1007 NOSIG

Saat: 06:08 (02:08 UTC)

Tahmin

Rapor saat 22:58 UTC de 3 saat ve 10 dakika önce yapıldı.
Ayın 26'si saat 00 UTC'den ayın 27'si saat 06 UTC'ye kadar geçerli Tahmin
Rüzgar güney/güneybatıdan 5 kt
Görüş mesafesi: 8000 m
Dönüşüyor
ayın 26'si saat 06 UTC'den ayın 26'si saat 08 UTC'ye kadar
Rüzgar batı/kuzeybatıdan 12 kt
Dönüşüyor
ayın 26'si saat 15 UTC'den ayın 26'si saat 17 UTC'ye kadar
Rüzgar doğu/güneydoğudan 5 kt

TAF: OMDB 252258Z 2600/2706 20005KT 8000 NSC BECMG 2606/2608 30012KT BECMG 2615/2617 12005KT

4.000'den fazla havaalanı için hava durumu gözlemleri ve tahminleri (METAR ve TAF raporları).

Kullanılabilir istasyonlar harita üzerinde sarı ve kırmızı noktalarla gösterilir.

İstasyonun adını görmek için fareyi noktanın üzerinde gezdirin.

Sonrasında hava gözlem ve tahminlerini görmek için tıklayın.

Haritayı değiştirmek için: yaklaştırmak için siyah artı işaretli yeşil düğmeye ve uzaklaştırmak için de eksi işaretli düğmeye hızla tıklayın; bitişik haritalar için yeşil okları kullanın.


METAR-TAF: